sensor_id;sensor_type;location;lat;lon;timestamp;P1;durP1;ratioP1;P2;durP2;ratioP2
10174;SDS011;18221;38.704;0.152;2022-12-24T00:24:43;5.17;;;3.57;;
10174;SDS011;18221;38.704;0.152;2022-12-24T00:27:11;4.53;;;3.57;;
10174;SDS011;18221;38.704;0.152;2022-12-24T00:29:39;5.03;;;3.60;;
10174;SDS011;18221;38.704;0.152;2022-12-24T00:32:08;4.53;;;3.60;;
10174;SDS011;18221;38.704;0.152;2022-12-24T00:34:37;4.87;;;3.60;;
10174;SDS011;18221;38.704;0.152;2022-12-24T00:37:06;4.17;;;3.37;;
10174;SDS011;18221;38.704;0.152;2022-12-24T00:39:35;6.93;;;3.73;;
10174;SDS011;18221;38.704;0.152;2022-12-24T00:42:05;4.43;;;3.20;;
10174;SDS011;18221;38.704;0.152;2022-12-24T00:44:34;7.73;;;3.43;;
10174;SDS011;18221;38.704;0.152;2022-12-24T00:47:02;3.93;;;3.43;;
10174;SDS011;18221;38.704;0.152;2022-12-24T00:49:31;6.03;;;3.20;;
10174;SDS011;18221;38.704;0.152;2022-12-24T00:52:00;3.93;;;3.10;;
10174;SDS011;18221;38.704;0.152;2022-12-24T00:54:29;4.70;;;3.50;;
10174;SDS011;18221;38.704;0.152;2022-12-24T00:56:58;5.53;;;3.40;;
10174;SDS011;18221;38.704;0.152;2022-12-24T00:59:29;5.43;;;3.17;;
10174;SDS011;18221;38.704;0.152;2022-12-24T01:01:58;5.27;;;3.30;;
10174;SDS011;18221;38.704;0.152;2022-12-24T01:04:26;4.37;;;3.40;;
10174;SDS011;18221;38.704;0.152;2022-12-24T01:07:12;3.43;;;3.10;;
10174;SDS011;18221;38.704;0.152;2022-12-24T01:09:40;4.60;;;3.17;;
10174;SDS011;18221;38.704;0.152;2022-12-24T01:12:09;4.13;;;3.07;;
10174;SDS011;18221;38.704;0.152;2022-12-24T01:14:40;3.67;;;2.70;;
10174;SDS011;18221;38.704;0.152;2022-12-24T01:17:08;4.90;;;3.00;;
10174;SDS011;18221;38.704;0.152;2022-12-24T01:19:37;4.23;;;3.10;;
10174;SDS011;18221;38.704;0.152;2022-12-24T01:22:06;3.37;;;2.90;;
10174;SDS011;18221;38.704;0.152;2022-12-24T01:24:35;5.17;;;3.40;;
10174;SDS011;18221;38.704;0.152;2022-12-24T01:27:04;3.10;;;2.80;;
10174;SDS011;18221;38.704;0.152;2022-12-24T01:29:33;3.20;;;2.90;;
10174;SDS011;18221;38.704;0.152;2022-12-24T01:32:03;3.67;;;3.10;;
10174;SDS011;18221;38.704;0.152;2022-12-24T01:34:32;3.77;;;2.90;;
10174;SDS011;18221;38.704;0.152;2022-12-24T01:37:00;4.47;;;2.90;;
10174;SDS011;18221;38.704;0.152;2022-12-24T01:39:29;3.03;;;2.77;;
10174;SDS011;18221;38.704;0.152;2022-12-24T01:41:58;3.90;;;2.87;;
10174;SDS011;18221;38.704;0.152;2022-12-24T01:44:45;4.27;;;2.73;;
10174;SDS011;18221;38.704;0.152;2022-12-24T01:47:19;4.17;;;2.83;;
10174;SDS011;18221;38.704;0.152;2022-12-24T01:49:54;3.80;;;2.53;;
10174;SDS011;18221;38.704;0.152;2022-12-24T01:52:29;3.10;;;2.50;;
10174;SDS011;18221;38.704;0.152;2022-12-24T01:55:02;2.80;;;2.60;;
10174;SDS011;18221;38.704;0.152;2022-12-24T01:57:36;3.87;;;2.90;;
10174;SDS011;18221;38.704;0.152;2022-12-24T02:00:12;4.00;;;2.73;;
10174;SDS011;18221;38.704;0.152;2022-12-24T02:02:45;3.33;;;2.73;;
10174;SDS011;18221;38.704;0.152;2022-12-24T02:05:18;3.63;;;2.63;;
10174;SDS011;18221;38.704;0.152;2022-12-24T02:07:54;2.60;;;2.40;;
10174;SDS011;18221;38.704;0.152;2022-12-24T02:10:25;2.90;;;2.40;;
10174;SDS011;18221;38.704;0.152;2022-12-24T02:12:54;3.87;;;2.47;;
10174;SDS011;18221;38.704;0.152;2022-12-24T02:15:24;3.53;;;2.40;;
10174;SDS011;18221;38.704;0.152;2022-12-24T02:18:03;3.73;;;2.73;;
10174;SDS011;18221;38.704;0.152;2022-12-24T02:24:00;2.50;;;2.30;;
10174;SDS011;18221;38.704;0.152;2022-12-24T02:27:11;2.57;;;2.37;;
10174;SDS011;18221;38.704;0.152;2022-12-24T02:30:01;2.63;;;2.43;;
10174;SDS011;18221;38.704;0.152;2022-12-24T02:32:53;2.80;;;2.50;;
10174;SDS011;18221;38.704;0.152;2022-12-24T02:35:43;2.87;;;2.63;;
10174;SDS011;18221;38.704;0.152;2022-12-24T02:38:19;3.67;;;2.30;;
10174;SDS011;18221;38.704;0.152;2022-12-24T02:40:54;2.57;;;2.30;;
10174;SDS011;18221;38.704;0.152;2022-12-24T02:43:28;3.63;;;2.70;;
10174;SDS011;18221;38.704;0.152;2022-12-24T02:46:05;2.97;;;2.33;;
10174;SDS011;18221;38.704;0.152;2022-12-24T02:48:40;3.60;;;2.80;;
10174;SDS011;18221;38.704;0.152;2022-12-24T02:51:13;3.57;;;2.60;;
10174;SDS011;18221;38.704;0.152;2022-12-24T02:53:43;2.60;;;2.40;;
10174;SDS011;18221;38.704;0.152;2022-12-24T02:56:17;3.53;;;2.90;;
10174;SDS011;18221;38.704;0.152;2022-12-24T02:59:21;2.53;;;2.30;;
10174;SDS011;18221;38.704;0.152;2022-12-24T03:02:28;2.57;;;2.37;;
10174;SDS011;18221;38.704;0.152;2022-12-24T03:05:17;3.60;;;2.57;;
10174;SDS011;18221;38.704;0.152;2022-12-24T03:07:56;2.63;;;2.43;;
10174;SDS011;18221;38.704;0.152;2022-12-24T03:10:34;2.80;;;2.60;;
10174;SDS011;18221;38.704;0.152;2022-12-24T03:13:12;2.70;;;2.50;;
10174;SDS011;18221;38.704;0.152;2022-12-24T03:15:44;4.33;;;2.53;;
10174;SDS011;18221;38.704;0.152;2022-12-24T03:18:17;3.20;;;2.60;;
10174;SDS011;18221;38.704;0.152;2022-12-24T03:20:53;2.70;;;2.30;;
10174;SDS011;18221;38.704;0.152;2022-12-24T03:23:29;2.73;;;2.53;;
10174;SDS011;18221;38.704;0.152;2022-12-24T03:25:58;3.70;;;2.50;;
10174;SDS011;18221;38.704;0.152;2022-12-24T03:28:32;2.73;;;2.37;;
10174;SDS011;18221;38.704;0.152;2022-12-24T03:31:05;4.73;;;2.50;;
10174;SDS011;18221;38.704;0.152;2022-12-24T03:33:37;2.83;;;2.37;;
10174;SDS011;18221;38.704;0.152;2022-12-24T03:36:06;3.20;;;2.30;;
10174;SDS011;18221;38.704;0.152;2022-12-24T03:38:37;2.50;;;2.30;;
10174;SDS011;18221;38.704;0.152;2022-12-24T03:41:06;3.20;;;2.10;;
10174;SDS011;18221;38.704;0.152;2022-12-24T03:43:34;3.33;;;3.00;;
10174;SDS011;18221;38.704;0.152;2022-12-24T03:46:04;2.37;;;2.17;;
10174;SDS011;18221;38.704;0.152;2022-12-24T03:48:33;4.10;;;2.30;;
10174;SDS011;18221;38.704;0.152;2022-12-24T03:51:04;3.47;;;2.13;;
10174;SDS011;18221;38.704;0.152;2022-12-24T03:53:43;2.40;;;2.20;;
10174;SDS011;18221;38.704;0.152;2022-12-24T03:56:12;3.30;;;2.30;;
10174;SDS011;18221;38.704;0.152;2022-12-24T03:58:41;3.60;;;2.27;;
10174;SDS011;18221;38.704;0.152;2022-12-24T04:01:09;2.73;;;2.53;;
10174;SDS011;18221;38.704;0.152;2022-12-24T04:03:38;3.07;;;2.10;;
10174;SDS011;18221;38.704;0.152;2022-12-24T04:06:09;2.80;;;2.37;;
10174;SDS011;18221;38.704;0.152;2022-12-24T04:08:39;3.47;;;2.40;;
10174;SDS011;18221;38.704;0.152;2022-12-24T04:11:09;2.60;;;2.33;;
10174;SDS011;18221;38.704;0.152;2022-12-24T04:13:41;2.63;;;2.40;;
10174;SDS011;18221;38.704;0.152;2022-12-24T04:16:10;3.47;;;2.00;;
10174;SDS011;18221;38.704;0.152;2022-12-24T04:18:41;2.43;;;2.23;;
10174;SDS011;18221;38.704;0.152;2022-12-24T04:21:12;2.63;;;2.40;;
10174;SDS011;18221;38.704;0.152;2022-12-24T04:23:41;2.70;;;2.40;;
10174;SDS011;18221;38.704;0.152;2022-12-24T04:26:11;3.10;;;2.60;;
10174;SDS011;18221;38.704;0.152;2022-12-24T04:28:41;2.70;;;2.50;;
10174;SDS011;18221;38.704;0.152;2022-12-24T04:31:11;3.53;;;2.43;;
10174;SDS011;18221;38.704;0.152;2022-12-24T04:33:41;3.37;;;2.70;;
10174;SDS011;18221;38.704;0.152;2022-12-24T04:36:13;2.57;;;2.23;;
10174;SDS011;18221;38.704;0.152;2022-12-24T04:38:44;3.10;;;2.67;;
10174;SDS011;18221;38.704;0.152;2022-12-24T04:41:14;2.40;;;2.20;;
10174;SDS011;18221;38.704;0.152;2022-12-24T04:43:45;2.53;;;2.33;;
10174;SDS011;18221;38.704;0.152;2022-12-24T04:46:15;3.07;;;2.00;;
10174;SDS011;18221;38.704;0.152;2022-12-24T04:48:46;3.03;;;2.20;;
10174;SDS011;18221;38.704;0.152;2022-12-24T04:51:18;2.47;;;2.20;;
10174;SDS011;18221;38.704;0.152;2022-12-24T04:53:47;2.20;;;2.00;;
10174;SDS011;18221;38.704;0.152;2022-12-24T04:56:17;2.33;;;2.10;;
10174;SDS011;18221;38.704;0.152;2022-12-24T04:58:47;2.37;;;1.97;;
10174;SDS011;18221;38.704;0.152;2022-12-24T05:01:17;2.50;;;2.10;;
10174;SDS011;18221;38.704;0.152;2022-12-24T05:03:49;3.60;;;2.37;;
10174;SDS011;18221;38.704;0.152;2022-12-24T05:06:21;3.57;;;2.37;;
10174;SDS011;18221;38.704;0.152;2022-12-24T05:08:53;2.60;;;2.40;;
10174;SDS011;18221;38.704;0.152;2022-12-24T05:11:22;2.43;;;2.23;;
10174;SDS011;18221;38.704;0.152;2022-12-24T05:13:51;2.77;;;2.37;;
10174;SDS011;18221;38.704;0.152;2022-12-24T05:16:21;5.53;;;2.60;;
10174;SDS011;18221;38.704;0.152;2022-12-24T05:18:51;3.33;;;3.00;;
10174;SDS011;18221;38.704;0.152;2022-12-24T05:21:21;3.27;;;2.50;;
10174;SDS011;18221;38.704;0.152;2022-12-24T05:23:51;3.63;;;2.47;;
10174;SDS011;18221;38.704;0.152;2022-12-24T05:26:38;3.07;;;2.77;;
10174;SDS011;18221;38.704;0.152;2022-12-24T05:29:10;3.30;;;2.70;;
10174;SDS011;18221;38.704;0.152;2022-12-24T05:31:39;4.17;;;3.03;;
10174;SDS011;18221;38.704;0.152;2022-12-24T05:34:09;3.00;;;2.60;;
10174;SDS011;18221;38.704;0.152;2022-12-24T05:36:41;4.13;;;2.93;;
10174;SDS011;18221;38.704;0.152;2022-12-24T05:39:11;5.67;;;3.30;;
10174;SDS011;18221;38.704;0.152;2022-12-24T05:41:42;7.47;;;3.07;;
10174;SDS011;18221;38.704;0.152;2022-12-24T05:44:11;3.53;;;3.20;;
10174;SDS011;18221;38.704;0.152;2022-12-24T05:46:40;3.13;;;2.80;;
10174;SDS011;18221;38.704;0.152;2022-12-24T05:49:09;4.13;;;2.70;;
10174;SDS011;18221;38.704;0.152;2022-12-24T05:51:38;3.70;;;3.13;;
10174;SDS011;18221;38.704;0.152;2022-12-24T05:54:08;3.93;;;3.40;;
10174;SDS011;18221;38.704;0.152;2022-12-24T05:56:37;5.17;;;3.33;;
10174;SDS011;18221;38.704;0.152;2022-12-24T05:59:06;3.90;;;3.27;;
10174;SDS011;18221;38.704;0.152;2022-12-24T06:01:34;3.93;;;2.97;;
10174;SDS011;18221;38.704;0.152;2022-12-24T06:04:03;3.10;;;2.47;;
10174;SDS011;18221;38.704;0.152;2022-12-24T06:06:32;3.43;;;2.53;;
10174;SDS011;18221;38.704;0.152;2022-12-24T06:09:02;3.77;;;3.00;;
10174;SDS011;18221;38.704;0.152;2022-12-24T06:11:31;3.30;;;3.00;;
10174;SDS011;18221;38.704;0.152;2022-12-24T06:13:59;3.13;;;2.67;;
10174;SDS011;18221;38.704;0.152;2022-12-24T06:16:28;3.00;;;2.70;;
10174;SDS011;18221;38.704;0.152;2022-12-24T06:18:56;3.07;;;2.70;;
10174;SDS011;18221;38.704;0.152;2022-12-24T06:21:25;4.00;;;2.80;;
10174;SDS011;18221;38.704;0.152;2022-12-24T06:23:54;3.17;;;2.60;;
10174;SDS011;18221;38.704;0.152;2022-12-24T06:26:24;2.60;;;2.40;;
10174;SDS011;18221;38.704;0.152;2022-12-24T06:28:52;3.03;;;2.80;;
10174;SDS011;18221;38.704;0.152;2022-12-24T06:31:21;5.00;;;3.10;;
10174;SDS011;18221;38.704;0.152;2022-12-24T06:33:50;5.27;;;3.07;;
10174;SDS011;18221;38.704;0.152;2022-12-24T06:36:20;3.80;;;3.07;;
10174;SDS011;18221;38.704;0.152;2022-12-24T06:38:51;5.03;;;3.50;;
10174;SDS011;18221;38.704;0.152;2022-12-24T06:41:21;3.80;;;3.33;;
10174;SDS011;18221;38.704;0.152;2022-12-24T06:43:52;5.47;;;3.47;;
10174;SDS011;18221;38.704;0.152;2022-12-24T06:46:21;5.03;;;3.90;;
10174;SDS011;18221;38.704;0.152;2022-12-24T06:48:50;6.37;;;4.00;;
10174;SDS011;18221;38.704;0.152;2022-12-24T06:51:19;4.70;;;4.03;;
10174;SDS011;18221;38.704;0.152;2022-12-24T06:53:48;4.53;;;3.70;;
10174;SDS011;18221;38.704;0.152;2022-12-24T06:56:17;4.83;;;3.40;;
10174;SDS011;18221;38.704;0.152;2022-12-24T06:58:48;5.37;;;3.53;;
10174;SDS011;18221;38.704;0.152;2022-12-24T07:01:17;6.50;;;3.90;;
10174;SDS011;18221;38.704;0.152;2022-12-24T07:03:48;5.40;;;3.77;;
10174;SDS011;18221;38.704;0.152;2022-12-24T07:06:17;4.40;;;3.30;;
10174;SDS011;18221;38.704;0.152;2022-12-24T07:08:51;5.13;;;3.27;;
10174;SDS011;18221;38.704;0.152;2022-12-24T07:11:20;3.50;;;3.20;;
10174;SDS011;18221;38.704;0.152;2022-12-24T07:13:52;3.63;;;3.30;;
10174;SDS011;18221;38.704;0.152;2022-12-24T07:16:20;3.40;;;3.10;;
10174;SDS011;18221;38.704;0.152;2022-12-24T07:18:49;4.13;;;3.03;;
10174;SDS011;18221;38.704;0.152;2022-12-24T07:21:18;4.47;;;2.70;;
10174;SDS011;18221;38.704;0.152;2022-12-24T07:23:46;3.67;;;3.17;;
10174;SDS011;18221;38.704;0.152;2022-12-24T07:26:15;3.90;;;3.00;;
10174;SDS011;18221;38.704;0.152;2022-12-24T07:28:43;3.20;;;2.60;;
10174;SDS011;18221;38.704;0.152;2022-12-24T07:31:13;2.90;;;2.60;;
10174;SDS011;18221;38.704;0.152;2022-12-24T07:33:42;2.87;;;2.40;;
10174;SDS011;18221;38.704;0.152;2022-12-24T07:36:13;3.27;;;2.43;;
10174;SDS011;18221;38.704;0.152;2022-12-24T07:38:45;2.97;;;2.67;;
10174;SDS011;18221;38.704;0.152;2022-12-24T07:41:15;3.10;;;2.80;;
10174;SDS011;18221;38.704;0.152;2022-12-24T07:43:44;2.90;;;2.70;;
10174;SDS011;18221;38.704;0.152;2022-12-24T07:46:14;2.60;;;2.40;;
10174;SDS011;18221;38.704;0.152;2022-12-24T07:48:42;3.43;;;2.50;;
10174;SDS011;18221;38.704;0.152;2022-12-24T07:51:11;3.60;;;2.77;;
10174;SDS011;18221;38.704;0.152;2022-12-24T07:53:40;2.60;;;2.40;;
10174;SDS011;18221;38.704;0.152;2022-12-24T07:56:12;3.77;;;2.70;;
10174;SDS011;18221;38.704;0.152;2022-12-24T07:58:41;3.20;;;2.90;;
10174;SDS011;18221;38.704;0.152;2022-12-24T08:01:10;4.83;;;2.63;;
10174;SDS011;18221;38.704;0.152;2022-12-24T08:03:41;4.23;;;2.60;;
10174;SDS011;18221;38.704;0.152;2022-12-24T08:06:10;2.87;;;2.57;;
10174;SDS011;18221;38.704;0.152;2022-12-24T08:08:38;3.23;;;2.93;;
10174;SDS011;18221;38.704;0.152;2022-12-24T08:11:07;2.90;;;2.63;;
10174;SDS011;18221;38.704;0.152;2022-12-24T08:13:35;3.17;;;2.87;;
10174;SDS011;18221;38.704;0.152;2022-12-24T08:16:04;3.00;;;2.70;;
10174;SDS011;18221;38.704;0.152;2022-12-24T08:18:33;3.80;;;2.93;;
10174;SDS011;18221;38.704;0.152;2022-12-24T08:21:05;3.83;;;2.90;;
10174;SDS011;18221;38.704;0.152;2022-12-24T08:23:34;3.53;;;3.00;;
10174;SDS011;18221;38.704;0.152;2022-12-24T08:26:05;3.93;;;2.73;;
10174;SDS011;18221;38.704;0.152;2022-12-24T08:28:35;3.47;;;2.90;;
10174;SDS011;18221;38.704;0.152;2022-12-24T08:31:04;3.43;;;3.00;;
10174;SDS011;18221;38.704;0.152;2022-12-24T08:33:33;3.57;;;3.27;;
10174;SDS011;18221;38.704;0.152;2022-12-24T08:36:04;5.90;;;3.43;;
10174;SDS011;18221;38.704;0.152;2022-12-24T08:38:33;3.23;;;2.80;;
10174;SDS011;18221;38.704;0.152;2022-12-24T08:41:01;3.27;;;2.90;;
10174;SDS011;18221;38.704;0.152;2022-12-24T08:43:30;4.53;;;2.50;;
10174;SDS011;18221;38.704;0.152;2022-12-24T08:46:00;3.27;;;2.77;;
10174;SDS011;18221;38.704;0.152;2022-12-24T08:48:31;3.50;;;2.80;;
10174;SDS011;18221;38.704;0.152;2022-12-24T08:51:07;3.17;;;2.83;;
10174;SDS011;18221;38.704;0.152;2022-12-24T08:53:39;3.27;;;2.93;;
10174;SDS011;18221;38.704;0.152;2022-12-24T08:56:08;3.43;;;3.10;;
10174;SDS011;18221;38.704;0.152;2022-12-24T08:58:40;3.37;;;2.90;;
10174;SDS011;18221;38.704;0.152;2022-12-24T09:01:09;5.03;;;2.97;;
10174;SDS011;18221;38.704;0.152;2022-12-24T09:03:40;4.73;;;2.80;;
10174;SDS011;18221;38.704;0.152;2022-12-24T09:06:11;4.23;;;3.00;;
10174;SDS011;18221;38.704;0.152;2022-12-24T09:08:41;5.17;;;3.40;;
10174;SDS011;18221;38.704;0.152;2022-12-24T09:11:11;4.10;;;3.30;;
10174;SDS011;18221;38.704;0.152;2022-12-24T09:13:42;5.40;;;3.53;;
10174;SDS011;18221;38.704;0.152;2022-12-24T09:16:11;3.43;;;3.07;;
10174;SDS011;18221;38.704;0.152;2022-12-24T09:18:41;7.10;;;3.40;;
10174;SDS011;18221;38.704;0.152;2022-12-24T09:21:13;3.93;;;3.30;;
10174;SDS011;18221;38.704;0.152;2022-12-24T09:23:45;3.63;;;3.33;;
10174;SDS011;18221;38.704;0.152;2022-12-24T09:26:15;4.53;;;2.93;;
10174;SDS011;18221;38.704;0.152;2022-12-24T09:28:53;4.07;;;3.60;;
10174;SDS011;18221;38.704;0.152;2022-12-24T09:31:31;5.33;;;3.70;;
10174;SDS011;18221;38.704;0.152;2022-12-24T09:34:00;5.50;;;4.13;;
10174;SDS011;18221;38.704;0.152;2022-12-24T09:36:31;5.43;;;3.70;;
10174;SDS011;18221;38.704;0.152;2022-12-24T09:39:00;4.33;;;3.80;;
10174;SDS011;18221;38.704;0.152;2022-12-24T09:41:36;4.50;;;3.40;;
10174;SDS011;18221;38.704;0.152;2022-12-24T09:44:19;3.87;;;3.27;;
10174;SDS011;18221;38.704;0.152;2022-12-24T09:47:00;4.17;;;3.10;;
10174;SDS011;18221;38.704;0.152;2022-12-24T09:49:39;3.97;;;2.90;;
10174;SDS011;18221;38.704;0.152;2022-12-24T09:52:20;3.70;;;3.20;;
10174;SDS011;18221;38.704;0.152;2022-12-24T09:55:15;3.97;;;3.40;;
10174;SDS011;18221;38.704;0.152;2022-12-24T09:58:15;5.13;;;4.17;;
10174;SDS011;18221;38.704;0.152;2022-12-24T10:04:21;5.10;;;4.33;;
10174;SDS011;18221;38.704;0.152;2022-12-24T10:07:17;5.80;;;4.33;;
10174;SDS011;18221;38.704;0.152;2022-12-24T10:10:19;6.30;;;4.33;;
10174;SDS011;18221;38.704;0.152;2022-12-24T10:13:07;6.03;;;4.60;;
10174;SDS011;18221;38.704;0.152;2022-12-24T10:16:04;6.47;;;4.37;;
10174;SDS011;18221;38.704;0.152;2022-12-24T10:18:44;5.40;;;4.23;;
10174;SDS011;18221;38.704;0.152;2022-12-24T10:21:25;6.47;;;4.60;;
10174;SDS011;18221;38.704;0.152;2022-12-24T10:24:11;7.50;;;4.70;;
10174;SDS011;18221;38.704;0.152;2022-12-24T10:26:49;6.03;;;4.70;;
10174;SDS011;18221;38.704;0.152;2022-12-24T10:29:26;7.17;;;5.03;;
10174;SDS011;18221;38.704;0.152;2022-12-24T10:31:58;6.87;;;4.53;;
10174;SDS011;18221;38.704;0.152;2022-12-24T10:34:42;6.67;;;4.60;;
10174;SDS011;18221;38.704;0.152;2022-12-24T10:37:13;5.93;;;4.63;;
10174;SDS011;18221;38.704;0.152;2022-12-24T10:39:54;6.10;;;4.27;;
10174;SDS011;18221;38.704;0.152;2022-12-24T10:42:26;5.83;;;5.00;;
10174;SDS011;18221;38.704;0.152;2022-12-24T10:45:09;6.93;;;4.50;;
10174;SDS011;18221;38.704;0.152;2022-12-24T10:47:44;7.30;;;5.10;;
10174;SDS011;18221;38.704;0.152;2022-12-24T10:50:22;6.10;;;5.10;;
10174;SDS011;18221;38.704;0.152;2022-12-24T10:53:01;5.87;;;4.70;;
10174;SDS011;18221;38.704;0.152;2022-12-24T10:55:45;5.70;;;4.53;;
10174;SDS011;18221;38.704;0.152;2022-12-24T10:58:15;5.33;;;4.37;;
10174;SDS011;18221;38.704;0.152;2022-12-24T11:00:48;5.90;;;4.67;;
10174;SDS011;18221;38.704;0.152;2022-12-24T11:03:21;6.20;;;4.70;;
10174;SDS011;18221;38.704;0.152;2022-12-24T11:06:00;4.90;;;4.40;;
10174;SDS011;18221;38.704;0.152;2022-12-24T11:08:32;6.30;;;4.70;;
10174;SDS011;18221;38.704;0.152;2022-12-24T11:11:05;5.80;;;4.63;;
10174;SDS011;18221;38.704;0.152;2022-12-24T11:13:38;7.37;;;4.80;;
10174;SDS011;18221;38.704;0.152;2022-12-24T11:16:14;7.37;;;4.90;;
10174;SDS011;18221;38.704;0.152;2022-12-24T11:18:51;5.20;;;4.60;;
10174;SDS011;18221;38.704;0.152;2022-12-24T11:21:23;6.13;;;4.90;;
10174;SDS011;18221;38.704;0.152;2022-12-24T11:23:56;6.23;;;5.20;;
10174;SDS011;18221;38.704;0.152;2022-12-24T11:26:37;7.93;;;5.20;;
10174;SDS011;18221;38.704;0.152;2022-12-24T11:29:12;6.53;;;4.90;;
10174;SDS011;18221;38.704;0.152;2022-12-24T11:31:45;8.83;;;5.20;;
10174;SDS011;18221;38.704;0.152;2022-12-24T11:34:26;6.70;;;5.13;;
10174;SDS011;18221;38.704;0.152;2022-12-24T11:37:06;6.37;;;4.77;;
10174;SDS011;18221;38.704;0.152;2022-12-24T11:39:48;7.97;;;5.30;;
10174;SDS011;18221;38.704;0.152;2022-12-24T11:42:24;6.67;;;5.17;;
10174;SDS011;18221;38.704;0.152;2022-12-24T11:44:57;6.80;;;5.00;;
10174;SDS011;18221;38.704;0.152;2022-12-24T11:47:33;7.47;;;5.37;;
10174;SDS011;18221;38.704;0.152;2022-12-24T11:52:55;6.90;;;5.33;;
10174;SDS011;18221;38.704;0.152;2022-12-24T11:55:36;6.53;;;5.10;;
10174;SDS011;18221;38.704;0.152;2022-12-24T11:58:17;8.93;;;5.77;;
10174;SDS011;18221;38.704;0.152;2022-12-24T12:00:56;8.00;;;5.70;;
10174;SDS011;18221;38.704;0.152;2022-12-24T12:03:37;7.43;;;5.47;;
10174;SDS011;18221;38.704;0.152;2022-12-24T12:06:15;9.20;;;5.70;;
10174;SDS011;18221;38.704;0.152;2022-12-24T12:08:55;6.67;;;4.83;;
10174;SDS011;18221;38.704;0.152;2022-12-24T12:11:28;7.67;;;4.83;;
10174;SDS011;18221;38.704;0.152;2022-12-24T12:14:01;6.30;;;4.70;;
10174;SDS011;18221;38.704;0.152;2022-12-24T12:16:34;6.70;;;4.70;;
10174;SDS011;18221;38.704;0.152;2022-12-24T12:19:29;5.53;;;4.43;;
10174;SDS011;18221;38.704;0.152;2022-12-24T12:22:06;6.07;;;4.40;;
10174;SDS011;18221;38.704;0.152;2022-12-24T12:24:46;6.07;;;4.80;;
10174;SDS011;18221;38.704;0.152;2022-12-24T12:27:26;7.27;;;4.87;;
10174;SDS011;18221;38.704;0.152;2022-12-24T12:30:02;5.47;;;4.53;;
10174;SDS011;18221;38.704;0.152;2022-12-24T12:32:42;6.40;;;4.40;;
10174;SDS011;18221;38.704;0.152;2022-12-24T12:35:22;4.63;;;4.13;;
10174;SDS011;18221;38.704;0.152;2022-12-24T12:37:57;5.40;;;4.27;;
10174;SDS011;18221;38.704;0.152;2022-12-24T12:40:44;6.17;;;4.23;;
10174;SDS011;18221;38.704;0.152;2022-12-24T12:47:03;8.30;;;4.73;;
10174;SDS011;18221;38.704;0.152;2022-12-24T12:49:57;4.90;;;4.37;;
10174;SDS011;18221;38.704;0.152;2022-12-24T12:52:44;6.67;;;4.80;;
10174;SDS011;18221;38.704;0.152;2022-12-24T12:55:33;7.17;;;4.33;;
10174;SDS011;18221;38.704;0.152;2022-12-24T12:58:16;7.77;;;4.93;;
10174;SDS011;18221;38.704;0.152;2022-12-24T13:00:54;5.67;;;4.67;;
10174;SDS011;18221;38.704;0.152;2022-12-24T13:03:57;8.63;;;5.77;;
10174;SDS011;18221;38.704;0.152;2022-12-24T13:07:07;6.20;;;5.00;;
10174;SDS011;18221;38.704;0.152;2022-12-24T13:10:29;6.47;;;4.73;;
10174;SDS011;18221;38.704;0.152;2022-12-24T13:16:44;7.03;;;5.60;;
10174;SDS011;18221;38.704;0.152;2022-12-24T13:22:53;6.30;;;5.13;;
10174;SDS011;18221;38.704;0.152;2022-12-24T13:25:28;7.47;;;5.90;;
10174;SDS011;18221;38.704;0.152;2022-12-24T13:31:25;8.60;;;5.67;;
10174;SDS011;18221;38.704;0.152;2022-12-24T13:33:56;6.40;;;5.80;;
10174;SDS011;18221;38.704;0.152;2022-12-24T13:42:50;7.60;;;5.03;;
10174;SDS011;18221;38.704;0.152;2022-12-24T13:45:43;6.87;;;5.10;;
10174;SDS011;18221;38.704;0.152;2022-12-24T13:48:21;6.77;;;4.60;;
10174;SDS011;18221;38.704;0.152;2022-12-24T13:51:00;6.83;;;4.70;;
10174;SDS011;18221;38.704;0.152;2022-12-24T13:53:54;4.77;;;4.13;;
10174;SDS011;18221;38.704;0.152;2022-12-24T13:56:26;5.33;;;4.70;;
10174;SDS011;18221;38.704;0.152;2022-12-24T13:59:08;5.43;;;4.43;;
10174;SDS011;18221;38.704;0.152;2022-12-24T14:01:49;8.17;;;4.83;;
10174;SDS011;18221;38.704;0.152;2022-12-24T14:04:21;7.67;;;4.47;;
10174;SDS011;18221;38.704;0.152;2022-12-24T14:06:57;5.17;;;4.17;;
10174;SDS011;18221;38.704;0.152;2022-12-24T14:09:30;7.50;;;4.53;;
10174;SDS011;18221;38.704;0.152;2022-12-24T14:18:30;7.83;;;4.57;;
10174;SDS011;18221;38.704;0.152;2022-12-24T14:21:05;6.23;;;4.20;;
10174;SDS011;18221;38.704;0.152;2022-12-24T14:23:43;6.37;;;4.93;;
10174;SDS011;18221;38.704;0.152;2022-12-24T14:26:22;8.63;;;5.30;;
10174;SDS011;18221;38.704;0.152;2022-12-24T14:29:02;6.10;;;4.70;;
10174;SDS011;18221;38.704;0.152;2022-12-24T14:31:48;5.23;;;4.73;;
10174;SDS011;18221;38.704;0.152;2022-12-24T14:34:18;4.63;;;4.10;;
10174;SDS011;18221;38.704;0.152;2022-12-24T14:36:47;5.80;;;4.20;;
10174;SDS011;18221;38.704;0.152;2022-12-24T14:39:21;6.63;;;4.80;;
10174;SDS011;18221;38.704;0.152;2022-12-24T14:42:01;7.13;;;4.53;;
10174;SDS011;18221;38.704;0.152;2022-12-24T14:45:00;5.13;;;4.63;;
10174;SDS011;18221;38.704;0.152;2022-12-24T14:47:44;5.43;;;4.20;;
10174;SDS011;18221;38.704;0.152;2022-12-24T14:50:32;4.40;;;4.00;;
10174;SDS011;18221;38.704;0.152;2022-12-24T14:53:32;5.47;;;4.60;;
10174;SDS011;18221;38.704;0.152;2022-12-24T14:56:23;5.87;;;4.73;;
10174;SDS011;18221;38.704;0.152;2022-12-24T14:58:54;5.53;;;5.00;;
10174;SDS011;18221;38.704;0.152;2022-12-24T15:01:29;4.80;;;4.40;;
10174;SDS011;18221;38.704;0.152;2022-12-24T15:04:00;8.87;;;5.10;;
10174;SDS011;18221;38.704;0.152;2022-12-24T15:06:40;6.50;;;5.13;;
10174;SDS011;18221;38.704;0.152;2022-12-24T15:09:16;6.97;;;5.53;;
10174;SDS011;18221;38.704;0.152;2022-12-24T15:11:47;8.73;;;6.20;;
10174;SDS011;18221;38.704;0.152;2022-12-24T15:14:21;8.77;;;5.30;;
10174;SDS011;18221;38.704;0.152;2022-12-24T15:16:54;7.27;;;4.93;;
10174;SDS011;18221;38.704;0.152;2022-12-24T15:19:30;6.40;;;4.70;;
10174;SDS011;18221;38.704;0.152;2022-12-24T15:22:02;8.90;;;4.97;;
10174;SDS011;18221;38.704;0.152;2022-12-24T15:24:42;5.50;;;4.20;;
10174;SDS011;18221;38.704;0.152;2022-12-24T15:27:13;5.57;;;3.60;;
10174;SDS011;18221;38.704;0.152;2022-12-24T15:29:46;4.37;;;3.97;;
10174;SDS011;18221;38.704;0.152;2022-12-24T15:32:18;8.27;;;4.57;;
10174;SDS011;18221;38.704;0.152;2022-12-24T15:34:49;8.67;;;5.23;;
10174;SDS011;18221;38.704;0.152;2022-12-24T15:37:20;7.80;;;5.83;;
10174;SDS011;18221;38.704;0.152;2022-12-24T15:39:52;8.10;;;5.80;;
10174;SDS011;18221;38.704;0.152;2022-12-24T15:42:23;7.23;;;4.93;;
10174;SDS011;18221;38.704;0.152;2022-12-24T15:44:59;4.80;;;4.30;;
10174;SDS011;18221;38.704;0.152;2022-12-24T15:47:34;5.43;;;4.50;;
10174;SDS011;18221;38.704;0.152;2022-12-24T15:50:13;9.17;;;4.93;;
10174;SDS011;18221;38.704;0.152;2022-12-24T15:52:46;5.97;;;4.33;;
10174;SDS011;18221;38.704;0.152;2022-12-24T15:55:25;5.90;;;3.90;;
10174;SDS011;18221;38.704;0.152;2022-12-24T15:57:56;5.00;;;3.60;;
10174;SDS011;18221;38.704;0.152;2022-12-24T16:00:28;4.13;;;3.10;;
10174;SDS011;18221;38.704;0.152;2022-12-24T16:03:08;5.40;;;3.30;;
10174;SDS011;18221;38.704;0.152;2022-12-24T16:05:43;6.37;;;4.13;;
10174;SDS011;18221;38.704;0.152;2022-12-24T16:08:22;4.53;;;3.73;;
10174;SDS011;18221;38.704;0.152;2022-12-24T16:11:12;4.63;;;3.53;;
10174;SDS011;18221;38.704;0.152;2022-12-24T16:13:54;5.90;;;5.03;;
10174;SDS011;18221;38.704;0.152;2022-12-24T16:16:37;5.73;;;4.83;;
10174;SDS011;18221;38.704;0.152;2022-12-24T16:19:14;7.80;;;6.43;;
10174;SDS011;18221;38.704;0.152;2022-12-24T16:21:49;8.50;;;6.30;;
10174;SDS011;18221;38.704;0.152;2022-12-24T16:24:22;11.43;;;7.87;;
10174;SDS011;18221;38.704;0.152;2022-12-24T16:26:54;11.90;;;8.67;;
10174;SDS011;18221;38.704;0.152;2022-12-24T16:29:24;10.23;;;7.83;;
10174;SDS011;18221;38.704;0.152;2022-12-24T16:31:55;11.77;;;8.83;;